createdAt,value
2022-11-23T00:00:35.318Z,6.20
2022-11-23T00:02:40.296Z,6.10
2022-11-23T00:04:45.239Z,6.10
2022-11-23T00:06:50.161Z,6.10
2022-11-23T00:08:56.801Z,6.10
2022-11-23T00:11:01.903Z,6.10
2022-11-23T00:13:07.018Z,6.10
2022-11-23T00:15:17.705Z,6.10
2022-11-23T00:17:25.389Z,6.20
2022-11-23T00:19:31.109Z,6.20
2022-11-23T00:21:37.080Z,6.20
2022-11-23T00:23:42.988Z,6.10
2022-11-23T00:25:48.858Z,6.10
2022-11-23T00:27:53.969Z,6.10
2022-11-23T00:29:59.190Z,6.10
2022-11-23T00:32:04.793Z,6.10
2022-11-23T00:34:12.788Z,6.20
2022-11-23T00:36:19.837Z,6.20
2022-11-23T00:38:24.771Z,6.10
2022-11-23T00:40:29.738Z,6.10
2022-11-23T00:42:38.188Z,6.10
2022-11-23T00:44:43.161Z,6.10
2022-11-23T00:46:48.515Z,6.10
2022-11-23T00:48:57.150Z,6.10
2022-11-23T00:51:08.393Z,6.10
2022-11-23T00:53:13.950Z,6.10
2022-11-23T00:55:19.676Z,6.10
2022-11-23T00:57:24.617Z,6.20
2022-11-23T00:59:30.633Z,6.20
2022-11-23T01:01:38.619Z,6.20
2022-11-23T01:03:47.287Z,6.20
2022-11-23T01:05:52.798Z,6.20
2022-11-23T01:08:01.638Z,6.20
2022-11-23T01:10:08.231Z,6.20
2022-11-23T01:12:13.715Z,6.20
2022-11-23T01:14:18.676Z,6.10
2022-11-23T01:16:26.488Z,6.10
2022-11-23T01:18:31.628Z,6.20
2022-11-23T01:20:38.134Z,6.20
2022-11-23T01:22:43.605Z,6.10
2022-11-23T01:24:52.558Z,6.10
2022-11-23T01:26:59.110Z,6.10
2022-11-23T01:29:05.173Z,6.00
2022-11-23T01:31:14.709Z,6.00
2022-11-23T01:33:23.134Z,5.90
2022-11-23T01:35:28.095Z,5.90
2022-11-23T01:37:33.424Z,5.90
2022-11-23T01:39:38.425Z,5.90
2022-11-23T01:41:47.667Z,5.90
2022-11-23T01:43:54.429Z,5.90
2022-11-23T01:46:02.685Z,6.00
2022-11-23T01:48:16.651Z,6.00
2022-11-23T01:50:22.035Z,6.00
2022-11-23T01:52:29.220Z,6.10
2022-11-23T01:54:39.498Z,6.10
2022-11-23T01:56:53.431Z,6.10
2022-11-23T01:59:03.208Z,6.20
2022-11-23T02:01:09.814Z,6.20
2022-11-23T02:03:15.983Z,6.20
2022-11-23T02:05:24.597Z,6.20
2022-11-23T02:07:30.865Z,6.20
2022-11-23T02:09:38.417Z,6.20
2022-11-23T02:11:46.033Z,6.20
2022-11-23T02:13:53.976Z,6.30
2022-11-23T02:16:01.427Z,6.30
2022-11-23T02:18:14.107Z,6.20
2022-11-23T02:20:22.051Z,6.20
2022-11-23T02:22:37.950Z,6.20
2022-11-23T02:24:49.889Z,6.10
2022-11-23T02:26:58.671Z,6.10
2022-11-23T02:29:09.030Z,6.10
2022-11-23T02:31:14.403Z,6.10
2022-11-23T02:33:19.374Z,6.10
2022-11-23T02:35:24.829Z,6.10
2022-11-23T02:37:30.153Z,6.10
2022-11-23T02:39:40.776Z,6.10
2022-11-23T02:41:50.960Z,6.10
2022-11-23T02:44:00.131Z,6.10
2022-11-23T02:46:07.317Z,6.10
2022-11-23T02:48:12.869Z,6.20
2022-11-23T02:50:19.509Z,6.20
2022-11-23T02:52:24.937Z,6.20
2022-11-23T02:54:30.757Z,6.20
2022-11-23T02:56:36.112Z,6.30
2022-11-23T02:58:42.519Z,6.30
2022-11-23T03:00:50.165Z,6.30
2022-11-23T03:02:57.966Z,6.30
2022-11-23T03:05:03.642Z,6.20
2022-11-23T03:07:08.691Z,6.30
2022-11-23T03:09:14.495Z,6.30
2022-11-23T03:11:20.566Z,6.20
2022-11-23T03:13:26.270Z,6.20
2022-11-23T03:15:33.585Z,6.30
2022-11-23T03:17:43.758Z,6.30
2022-11-23T03:19:51.087Z,6.30
2022-11-23T03:21:56.857Z,6.30
2022-11-23T03:24:01.868Z,6.30
2022-11-23T03:26:12.668Z,6.30
2022-11-23T03:28:26.492Z,6.40
2022-11-23T03:30:31.755Z,6.30
2022-11-23T03:32:38.079Z,6.30
2022-11-23T03:34:46.442Z,6.30
2022-11-23T03:36:53.334Z,6.30
2022-11-23T03:38:59.558Z,6.40
2022-11-23T03:41:27.889Z,6.30
2022-11-23T03:43:34.569Z,6.30
2022-11-23T03:45:39.510Z,6.30
2022-11-23T03:47:45.095Z,6.30
2022-11-23T03:49:54.017Z,6.30
2022-11-23T03:51:58.999Z,6.30
2022-11-23T03:54:06.178Z,6.30
2022-11-23T03:56:12.371Z,6.20
2022-11-23T03:58:21.453Z,6.20
2022-11-23T04:00:27.838Z,6.20
2022-11-23T04:02:33.505Z,6.20
2022-11-23T04:04:46.004Z,6.30
2022-11-23T04:07:32.001Z,6.30
2022-11-23T04:09:41.167Z,6.30
2022-11-23T04:12:09.957Z,6.30
2022-11-23T04:14:16.454Z,6.30
2022-11-23T04:16:21.788Z,6.30
2022-11-23T04:18:27.815Z,6.30
2022-11-23T04:20:33.705Z,6.30
2022-11-23T04:22:41.592Z,6.30
2022-11-23T04:24:46.869Z,6.30
2022-11-23T04:26:51.963Z,6.30
2022-11-23T04:28:57.156Z,6.40
2022-11-23T04:31:02.840Z,6.30
2022-11-23T04:33:18.830Z,6.30
2022-11-23T04:35:24.299Z,6.40
2022-11-23T04:37:39.145Z,6.30
2022-11-23T04:39:46.742Z,6.30
2022-11-23T04:42:02.879Z,6.30
2022-11-23T04:44:09.682Z,6.30
2022-11-23T04:46:15.179Z,6.30
2022-11-23T04:48:24.329Z,6.30
2022-11-23T04:50:31.684Z,6.30
2022-11-23T04:52:36.886Z,6.30
2022-11-23T04:54:49.481Z,6.30
2022-11-23T04:56:54.958Z,6.30
2022-11-23T04:59:00.048Z,6.30
2022-11-23T05:01:07.111Z,6.30
2022-11-23T05:03:21.108Z,6.20
2022-11-23T05:05:27.336Z,6.20
2022-11-23T05:07:33.156Z,6.20
2022-11-23T05:09:41.458Z,6.20
2022-11-23T05:11:54.173Z,6.20
2022-11-23T05:14:00.095Z,6.20
2022-11-23T05:16:07.595Z,6.20
2022-11-23T05:18:15.036Z,6.20
2022-11-23T05:20:21.500Z,6.30
2022-11-23T05:22:26.968Z,6.20
2022-11-23T05:24:32.686Z,6.20
2022-11-23T05:26:57.114Z,6.30
2022-11-23T05:29:02.368Z,6.30
2022-11-23T05:31:09.698Z,6.20
2022-11-23T05:33:15.668Z,6.20
2022-11-23T05:35:22.164Z,6.20
2022-11-23T05:37:27.905Z,6.20
2022-11-23T05:39:39.577Z,6.20
2022-11-23T05:41:44.577Z,6.20
2022-11-23T05:44:09.126Z,6.20
2022-11-23T05:46:14.149Z,6.30
2022-11-23T05:48:20.898Z,6.20
2022-11-23T05:50:35.392Z,6.20
2022-11-23T05:52:59.821Z,6.30
2022-11-23T05:55:05.288Z,6.20
2022-11-23T05:57:11.362Z,6.30
2022-11-23T05:59:21.322Z,6.20
2022-11-23T06:01:32.243Z,6.20
2022-11-23T06:03:39.220Z,6.20
2022-11-23T06:05:44.979Z,6.20
2022-11-23T06:07:54.815Z,6.20
2022-11-23T06:10:05.438Z,6.10
2022-11-23T06:12:12.153Z,6.10
2022-11-23T06:14:20.661Z,6.10
2022-11-23T06:16:26.659Z,6.10
2022-11-23T06:18:40.715Z,6.10
2022-11-23T06:20:47.690Z,6.10
2022-11-23T06:22:55.285Z,6.10
2022-11-23T06:25:02.367Z,6.20
2022-11-23T06:27:07.725Z,6.20
2022-11-23T06:29:12.731Z,6.20
2022-11-23T06:31:20.501Z,6.20
2022-11-23T06:33:26.208Z,6.20
2022-11-23T06:35:32.064Z,6.20
2022-11-23T06:37:38.569Z,6.20
2022-11-23T06:39:44.061Z,6.20
2022-11-23T06:41:49.183Z,6.20
2022-11-23T06:43:55.305Z,6.20
2022-11-23T06:46:16.105Z,6.20
2022-11-23T06:48:23.721Z,6.20
2022-11-23T06:50:29.687Z,6.20
2022-11-23T06:52:34.809Z,6.20
2022-11-23T06:54:40.385Z,6.20
2022-11-23T06:56:45.456Z,6.20
2022-11-23T06:58:51.269Z,6.20
2022-11-23T07:01:04.260Z,6.20
2022-11-23T07:03:25.675Z,6.20
2022-11-23T07:05:41.306Z,6.20
2022-11-23T07:07:46.614Z,6.20
2022-11-23T07:10:06.677Z,6.20
2022-11-23T07:12:21.577Z,6.20
2022-11-23T07:14:26.608Z,6.20
2022-11-23T07:16:33.908Z,6.20
2022-11-23T07:18:42.947Z,6.20
2022-11-23T07:20:50.820Z,6.20
2022-11-23T07:23:03.443Z,6.20
2022-11-23T07:25:09.834Z,6.20
2022-11-23T07:27:15.364Z,6.20
2022-11-23T07:29:21.533Z,6.20
2022-11-23T07:31:26.769Z,6.20
2022-11-23T07:33:31.906Z,6.20
2022-11-23T07:35:40.937Z,6.20
2022-11-23T07:37:46.745Z,6.20
2022-11-23T07:39:58.091Z,6.10
2022-11-23T07:44:32.531Z,6.10
2022-11-23T07:46:37.452Z,6.10
2022-11-23T07:48:43.529Z,6.10
2022-11-23T07:50:51.474Z,6.10
2022-11-23T07:52:56.825Z,6.10
2022-11-23T07:55:02.936Z,6.20
2022-11-23T07:57:08.304Z,6.20
2022-11-23T07:59:13.449Z,6.20
2022-11-23T08:01:19.173Z,6.20
2022-11-23T08:03:28.915Z,6.20
2022-11-23T08:05:37.926Z,6.20
2022-11-23T08:07:45.773Z,6.20
2022-11-23T08:09:50.583Z,6.20
2022-11-23T08:11:56.102Z,6.30
2022-11-23T08:14:01.070Z,6.30
2022-11-23T08:16:07.518Z,6.40
2022-11-23T08:18:13.049Z,6.40
2022-11-23T08:20:18.220Z,6.40
2022-11-23T08:22:27.133Z,6.40
2022-11-23T08:24:37.193Z,6.40
2022-11-23T08:26:42.603Z,6.50
2022-11-23T08:28:47.873Z,6.50
2022-11-23T08:30:53.347Z,6.60
2022-11-23T08:32:58.517Z,6.60
2022-11-23T08:35:04.284Z,6.60
2022-11-23T08:37:09.676Z,6.60
2022-11-23T08:39:15.239Z,6.70
2022-11-23T08:41:23.195Z,6.70
2022-11-23T08:43:28.632Z,6.70
2022-11-23T08:45:34.431Z,6.70
2022-11-23T08:47:39.396Z,6.70
2022-11-23T08:49:44.389Z,6.70
2022-11-23T08:51:50.401Z,6.70
2022-11-23T08:53:55.568Z,6.80
2022-11-23T08:56:04.075Z,6.70
2022-11-23T08:58:13.654Z,6.80
2022-11-23T09:00:20.727Z,6.80
2022-11-23T09:02:26.130Z,6.90
2022-11-23T09:04:31.371Z,6.90
2022-11-23T09:06:37.468Z,6.90
2022-11-23T09:08:43.132Z,7.00
2022-11-23T09:10:48.173Z,7.00
2022-11-23T09:12:53.700Z,7.00
2022-11-23T09:15:01.516Z,7.10
2022-11-23T09:17:07.043Z,7.10
2022-11-23T09:19:15.974Z,7.20
2022-11-23T09:21:21.426Z,7.30
2022-11-23T09:23:27.419Z,7.20
2022-11-23T09:25:32.780Z,7.20
2022-11-23T09:27:37.777Z,7.30
2022-11-23T09:29:42.777Z,7.30
2022-11-23T09:31:50.712Z,7.40
2022-11-23T09:33:55.633Z,7.40
2022-11-23T09:36:01.778Z,7.50
2022-11-23T09:38:06.819Z,7.50
2022-11-23T09:40:17.482Z,7.60
2022-11-23T09:42:54.696Z,7.60
2022-11-23T09:45:20.882Z,7.60
2022-11-23T09:47:49.865Z,7.60
2022-11-23T09:50:06.149Z,7.60
2022-11-23T09:52:21.013Z,7.70
2022-11-23T09:54:34.197Z,7.70
2022-11-23T09:56:42.830Z,7.70
2022-11-23T09:58:47.989Z,7.70
2022-11-23T10:01:03.176Z,7.80
2022-11-23T10:03:17.655Z,7.80
2022-11-23T10:05:26.283Z,7.80
2022-11-23T10:08:01.552Z,7.70
2022-11-23T10:10:23.900Z,7.80
2022-11-23T10:12:47.070Z,7.80
2022-11-23T10:15:06.540Z,7.80
2022-11-23T10:17:23.015Z,7.80
2022-11-23T10:19:41.908Z,7.90
2022-11-23T10:21:57.553Z,7.90
2022-11-23T10:24:19.329Z,7.90
2022-11-23T10:26:31.945Z,8.00
2022-11-23T10:28:37.324Z,8.00
2022-11-23T10:30:42.909Z,8.00
2022-11-23T10:32:53.065Z,8.10
2022-11-23T10:35:09.720Z,8.10
2022-11-23T10:37:16.530Z,8.00
2022-11-23T10:39:26.715Z,8.00
2022-11-23T10:41:33.360Z,8.00
2022-11-23T10:43:44.323Z,8.00
2022-11-23T10:45:49.509Z,8.00
2022-11-23T10:47:58.925Z,8.00
2022-11-23T10:50:22.924Z,7.90
2022-11-23T10:52:33.516Z,7.90
2022-11-23T10:54:41.813Z,8.00
2022-11-23T10:56:50.910Z,8.00
2022-11-23T10:58:55.942Z,8.00
2022-11-23T11:01:07.062Z,8.00
2022-11-23T11:03:26.577Z,8.00
2022-11-23T11:06:08.683Z,8.00
2022-11-23T11:08:06.865Z,8.20
2022-11-23T11:10:44.279Z,8.30
2022-11-23T11:12:54.252Z,8.30
2022-11-23T11:15:17.323Z,8.30
2022-11-23T11:17:30.594Z,8.30
2022-11-23T11:19:39.522Z,8.20
2022-11-23T11:21:47.085Z,8.30
2022-11-23T11:23:58.357Z,8.30
2022-11-23T11:26:19.554Z,8.40
2022-11-23T11:28:32.253Z,8.40
2022-11-23T11:30:52.720Z,8.40
2022-11-23T11:33:08.725Z,8.40
2022-11-23T11:35:21.172Z,8.40
2022-11-23T11:37:36.845Z,8.50
2022-11-23T11:39:48.697Z,8.50
2022-11-23T11:41:57.581Z,8.40
2022-11-23T11:44:10.320Z,8.40
2022-11-23T11:46:29.055Z,8.50
2022-11-23T11:48:42.041Z,8.50
2022-11-23T11:51:07.992Z,8.60
2022-11-23T11:53:21.777Z,8.60
2022-11-23T11:55:30.807Z,8.60
2022-11-23T11:57:42.847Z,8.70
2022-11-23T11:59:52.927Z,8.70
2022-11-23T12:02:06.813Z,8.70
2022-11-23T12:04:20.905Z,8.70
2022-11-23T12:06:32.844Z,8.70
2022-11-23T12:08:49.972Z,8.70
2022-11-23T12:10:59.074Z,8.80
2022-11-23T12:13:04.732Z,8.90
2022-11-23T12:15:48.321Z,8.90
2022-11-23T12:18:22.467Z,9.00
2022-11-23T12:20:33.692Z,9.10
2022-11-23T12:22:54.592Z,9.10
2022-11-23T12:25:23.413Z,9.20
2022-11-23T12:27:48.554Z,9.30
2022-11-23T12:30:26.160Z,9.40
2022-11-23T12:32:44.282Z,9.50
2022-11-23T12:35:26.690Z,9.60
2022-11-23T12:37:55.822Z,9.70
2022-11-23T12:40:26.619Z,9.70
2022-11-23T12:42:43.348Z,9.80
2022-11-23T12:45:20.314Z,9.80
2022-11-23T12:47:40.768Z,10.00
2022-11-23T12:49:54.069Z,10.00
2022-11-23T12:52:29.652Z,10.10
2022-11-23T12:54:57.253Z,10.10
2022-11-23T12:57:15.881Z,10.00
2022-11-23T12:59:22.441Z,10.00
2022-11-23T13:01:34.470Z,10.00
2022-11-23T13:04:14.275Z,10.10
2022-11-23T13:07:33.877Z,10.20
2022-11-23T13:10:07.467Z,10.20
2022-11-23T13:12:50.232Z,10.30
2022-11-23T13:15:07.022Z,10.30
2022-11-23T13:17:27.407Z,10.40
2022-11-23T13:20:04.692Z,10.50
2022-11-23T13:22:18.684Z,10.40
2022-11-23T13:24:33.853Z,10.40
2022-11-23T13:26:38.944Z,10.40
2022-11-23T13:28:47.789Z,10.40
2022-11-23T13:31:31.304Z,10.40
2022-11-23T13:33:40.802Z,10.40
2022-11-23T13:36:07.128Z,10.50
2022-11-23T13:38:30.207Z,10.50
2022-11-23T13:40:38.637Z,10.50
2022-11-23T13:42:44.725Z,10.50
2022-11-23T13:45:12.739Z,10.50
2022-11-23T13:47:22.885Z,10.50
2022-11-23T13:49:45.871Z,10.50
2022-11-23T13:52:28.384Z,10.50
2022-11-23T13:54:33.983Z,10.50
2022-11-23T13:56:42.081Z,10.50
2022-11-23T13:58:56.610Z,10.50
2022-11-23T14:01:04.270Z,10.50
2022-11-23T14:03:50.704Z,10.40
2022-11-23T14:06:03.780Z,10.50
2022-11-23T14:08:09.354Z,10.40
2022-11-23T14:10:25.727Z,10.50
2022-11-23T14:12:41.303Z,10.40
2022-11-23T14:14:59.115Z,10.40
2022-11-23T14:17:52.171Z,10.40
2022-11-23T14:20:30.761Z,10.40
2022-11-23T14:22:54.918Z,10.40
2022-11-23T14:25:25.417Z,10.30
2022-11-23T14:27:48.118Z,10.30
2022-11-23T14:30:17.217Z,10.30
2022-11-23T14:32:45.896Z,10.30
2022-11-23T14:35:06.486Z,10.30
2022-11-23T14:37:21.773Z,10.40
2022-11-23T14:40:13.718Z,10.30
2022-11-23T14:42:23.056Z,10.30
2022-11-23T14:44:36.986Z,10.20
2022-11-23T14:47:03.128Z,10.20
2022-11-23T14:49:17.893Z,10.10
2022-11-23T14:51:26.740Z,10.00
2022-11-23T14:53:36.046Z,10.00
2022-11-23T14:55:41.806Z,9.80
2022-11-23T14:57:49.833Z,9.70
2022-11-23T14:59:59.980Z,9.50
2022-11-23T15:02:17.323Z,9.30
2022-11-23T15:04:34.601Z,9.20
2022-11-23T15:06:45.552Z,9.10
2022-11-23T15:08:59.883Z,8.90
2022-11-23T15:11:12.659Z,8.90
2022-11-23T15:13:23.976Z,8.80
2022-11-23T15:15:37.910Z,8.70
2022-11-23T15:17:54.804Z,8.60
2022-11-23T15:20:04.235Z,8.60
2022-11-23T15:22:19.976Z,8.50
2022-11-23T15:24:27.316Z,8.50
2022-11-23T15:26:48.375Z,8.40
2022-11-23T15:28:54.617Z,8.40
2022-11-23T15:30:59.599Z,8.30
2022-11-23T15:33:08.241Z,8.20
2022-11-23T15:35:18.591Z,8.10
2022-11-23T15:37:24.810Z,8.00
2022-11-23T15:39:30.318Z,8.00
2022-11-23T15:41:37.752Z,7.90
2022-11-23T15:43:55.857Z,7.90
2022-11-23T15:46:12.751Z,7.80
2022-11-23T15:48:23.788Z,7.70
2022-11-23T15:50:34.000Z,7.70
2022-11-23T15:52:40.538Z,7.60
2022-11-23T15:54:46.167Z,7.60
2022-11-23T15:56:55.788Z,7.60
2022-11-23T15:59:04.575Z,7.50
2022-11-23T16:01:15.686Z,7.50
2022-11-23T16:03:36.081Z,7.40
2022-11-23T16:05:43.612Z,7.40
2022-11-23T16:07:57.784Z,7.40
2022-11-23T16:10:21.017Z,7.30
2022-11-23T16:12:29.968Z,7.30
2022-11-23T16:14:36.097Z,7.20
2022-11-23T16:16:45.855Z,7.20
2022-11-23T16:18:57.107Z,7.20
2022-11-23T16:21:07.344Z,7.20
2022-11-23T16:23:22.364Z,7.10
2022-11-23T16:25:31.771Z,7.10
2022-11-23T16:27:38.820Z,7.00
2022-11-23T16:29:44.373Z,7.00
2022-11-23T16:32:04.586Z,6.90
2022-11-23T16:34:13.141Z,7.00
2022-11-23T16:36:20.631Z,7.00
2022-11-23T16:38:26.187Z,6.90
2022-11-23T16:40:31.137Z,6.80
2022-11-23T16:42:36.635Z,6.80
2022-11-23T16:44:42.290Z,6.80
2022-11-23T16:46:49.733Z,6.70
2022-11-23T16:48:57.390Z,6.60
2022-11-23T16:51:02.549Z,6.50
2022-11-23T16:53:17.258Z,6.50
2022-11-23T16:55:22.203Z,6.40
2022-11-23T16:57:33.666Z,6.40
2022-11-23T16:59:38.834Z,6.30
2022-11-23T17:01:46.880Z,6.30
2022-11-23T17:03:52.931Z,6.10
2022-11-23T17:05:59.146Z,5.90
2022-11-23T17:08:07.302Z,5.70
2022-11-23T17:10:16.068Z,5.70
2022-11-23T17:12:23.072Z,5.80
2022-11-23T17:14:29.778Z,5.80
2022-11-23T17:16:36.802Z,5.90
2022-11-23T17:18:41.921Z,5.80
2022-11-23T17:20:47.389Z,5.80
2022-11-23T17:22:52.687Z,5.80
2022-11-23T17:24:57.817Z,5.70
2022-11-23T17:27:05.543Z,5.60
2022-11-23T17:29:16.869Z,5.60
2022-11-23T17:31:21.901Z,5.60
2022-11-23T17:33:27.331Z,5.60
2022-11-23T17:35:36.844Z,5.60
2022-11-23T17:37:43.530Z,5.40
2022-11-23T17:39:49.310Z,5.30
2022-11-23T17:41:54.508Z,5.40
2022-11-23T17:44:02.074Z,5.40
2022-11-23T17:46:07.576Z,5.40
2022-11-23T17:48:15.148Z,5.40
2022-11-23T17:50:21.847Z,5.40
2022-11-23T17:52:27.280Z,5.50
2022-11-23T17:54:32.378Z,5.40
2022-11-23T17:56:37.873Z,5.40
2022-11-23T17:58:43.263Z,5.40
2022-11-23T18:00:50.845Z,5.40
2022-11-23T18:02:55.940Z,5.40
2022-11-23T18:05:01.757Z,5.30
2022-11-23T18:07:07.492Z,5.30
2022-11-23T18:09:12.611Z,5.30
2022-11-23T18:11:19.358Z,5.10
2022-11-23T18:13:24.432Z,5.00
2022-11-23T18:15:30.338Z,5.00
2022-11-23T18:17:38.248Z,4.80
2022-11-23T18:19:43.264Z,4.90
2022-11-23T18:21:50.719Z,4.80
2022-11-23T18:24:01.480Z,4.70
2022-11-23T18:26:19.898Z,4.70
2022-11-23T18:28:24.936Z,4.90
2022-11-23T18:30:29.983Z,4.90
2022-11-23T18:32:37.667Z,4.90
2022-11-23T18:34:42.780Z,4.90
2022-11-23T18:36:48.144Z,4.90
2022-11-23T18:38:53.532Z,4.90
2022-11-23T18:40:59.006Z,4.90
2022-11-23T18:43:04.094Z,4.90
2022-11-23T18:45:11.017Z,4.90
2022-11-23T18:47:16.247Z,4.90
2022-11-23T18:49:24.909Z,4.90
2022-11-23T18:51:30.768Z,5.00
2022-11-23T18:53:36.203Z,5.00
2022-11-23T18:55:41.918Z,5.00
2022-11-23T18:57:47.588Z,5.00
2022-11-23T18:59:58.379Z,5.10
2022-11-23T19:02:04.024Z,5.10
2022-11-23T19:04:09.573Z,5.20
2022-11-23T19:06:19.417Z,5.10
2022-11-23T19:08:24.879Z,5.10
2022-11-23T19:10:29.976Z,5.30
2022-11-23T19:12:35.411Z,5.40
2022-11-23T19:14:40.433Z,5.60
2022-11-23T19:16:45.674Z,5.70
2022-11-23T19:18:55.484Z,5.70
2022-11-23T19:21:00.484Z,5.90
2022-11-23T19:23:08.123Z,5.90
2022-11-23T19:25:13.452Z,5.90
2022-11-23T19:27:18.726Z,5.90
2022-11-23T19:29:25.083Z,5.90
2022-11-23T19:31:33.223Z,5.90
2022-11-23T19:33:38.465Z,5.90
2022-11-23T19:35:43.464Z,5.90
2022-11-23T19:37:49.930Z,5.90
2022-11-23T19:39:57.959Z,5.90
2022-11-23T19:42:03.521Z,5.90
2022-11-23T19:44:09.252Z,5.90
2022-11-23T19:46:17.668Z,5.90
2022-11-23T19:48:22.809Z,6.00
2022-11-23T19:50:27.859Z,6.00
2022-11-23T19:53:03.773Z,6.00
2022-11-23T19:55:03.302Z,5.90
2022-11-23T19:57:08.271Z,6.00
2022-11-23T19:59:13.284Z,6.00
2022-11-23T20:01:20.911Z,5.90
2022-11-23T20:03:27.413Z,5.80
2022-11-23T20:05:32.595Z,5.80
2022-11-23T20:07:37.840Z,5.90
2022-11-23T20:09:43.123Z,5.90
2022-11-23T20:11:51.679Z,5.90
2022-11-23T20:13:57.565Z,5.90
2022-11-23T20:16:06.609Z,5.90
2022-11-23T20:18:11.772Z,5.90
2022-11-23T20:20:17.470Z,5.90
2022-11-23T20:22:22.464Z,5.90
2022-11-23T20:24:27.473Z,5.90
2022-11-23T20:26:33.344Z,6.00
2022-11-23T20:28:41.081Z,6.00
2022-11-23T20:30:47.716Z,5.90
2022-11-23T20:32:54.403Z,6.00
2022-11-23T20:34:59.411Z,6.00
2022-11-23T20:37:06.354Z,6.00
2022-11-23T20:39:15.036Z,6.00
2022-11-23T20:41:24.472Z,6.00
2022-11-23T20:43:30.050Z,6.00
2022-11-23T20:45:38.323Z,6.00
2022-11-23T20:47:43.387Z,6.00
2022-11-23T20:49:48.876Z,5.90
2022-11-23T20:51:54.525Z,5.80
2022-11-23T20:54:00.110Z,5.80
2022-11-23T20:56:07.056Z,5.80
2022-11-23T20:58:13.346Z,5.80
2022-11-23T21:00:21.807Z,5.80
2022-11-23T21:02:29.255Z,5.80
2022-11-23T21:04:36.067Z,5.80
2022-11-23T21:06:41.626Z,5.80
2022-11-23T21:08:48.627Z,5.90
2022-11-23T21:11:06.120Z,5.80
2022-11-23T21:13:29.990Z,5.90
2022-11-23T21:15:34.995Z,5.90
2022-11-23T21:17:42.774Z,5.90
2022-11-23T21:19:48.415Z,5.90
2022-11-23T21:21:53.703Z,5.90
2022-11-23T21:23:59.783Z,5.90
2022-11-23T21:26:08.424Z,5.90
2022-11-23T21:28:13.847Z,5.90
2022-11-23T21:30:20.013Z,5.90
2022-11-23T21:32:26.307Z,6.00
2022-11-23T21:34:35.743Z,5.90
2022-11-23T21:36:42.587Z,5.90
2022-11-23T21:38:48.052Z,5.90
2022-11-23T21:41:00.364Z,5.90
2022-11-23T21:43:05.585Z,5.90
2022-11-23T21:45:12.821Z,5.90
2022-11-23T21:47:18.602Z,5.90
2022-11-23T21:49:24.800Z,5.90
2022-11-23T21:51:34.478Z,5.90
2022-11-23T21:53:40.193Z,5.90
2022-11-23T21:55:45.557Z,5.90
2022-11-23T21:57:50.549Z,5.90
2022-11-23T21:59:55.887Z,5.90
2022-11-23T22:02:00.958Z,5.90
2022-11-23T22:04:10.385Z,5.90
2022-11-23T22:06:20.468Z,5.90
2022-11-23T22:08:29.643Z,5.90
2022-11-23T22:10:35.308Z,5.90
2022-11-23T22:12:40.713Z,5.90
2022-11-23T22:14:45.772Z,5.90
2022-11-23T22:16:54.056Z,5.90
2022-11-23T22:18:59.990Z,5.90
2022-11-23T22:21:06.719Z,5.90
2022-11-23T22:23:11.873Z,5.90
2022-11-23T22:25:19.676Z,5.80
2022-11-23T22:27:24.670Z,5.90
2022-11-23T22:29:29.721Z,5.80
2022-11-23T22:31:36.430Z,5.80
2022-11-23T22:33:42.052Z,5.80
2022-11-23T22:35:47.851Z,5.80
2022-11-23T22:37:53.586Z,5.80
2022-11-23T22:39:58.566Z,5.80
2022-11-23T22:42:07.235Z,5.80
2022-11-23T22:44:13.835Z,5.90
2022-11-23T22:46:21.276Z,5.80
2022-11-23T22:48:27.197Z,5.90
2022-11-23T22:50:32.197Z,5.90
2022-11-23T22:52:40.260Z,5.80
2022-11-23T22:54:45.565Z,5.80
2022-11-23T22:56:51.074Z,5.80
2022-11-23T22:58:59.509Z,5.90
2022-11-23T23:01:08.619Z,5.90
2022-11-23T23:03:14.264Z,5.90
2022-11-23T23:05:19.680Z,5.90
2022-11-23T23:07:27.028Z,5.90
2022-11-23T23:09:32.174Z,5.90
2022-11-23T23:11:39.407Z,5.90
2022-11-23T23:13:45.163Z,5.90
2022-11-23T23:16:02.764Z,5.90
2022-11-23T23:18:07.848Z,6.00
2022-11-23T23:20:13.634Z,6.00
2022-11-23T23:22:18.744Z,6.00
2022-11-23T23:24:23.764Z,6.00
2022-11-23T23:26:30.323Z,5.90
2022-11-23T23:28:35.453Z,5.90
2022-11-23T23:30:40.734Z,5.90
2022-11-23T23:32:51.036Z,5.90
2022-11-23T23:34:56.229Z,6.00
2022-11-23T23:37:01.263Z,6.00
2022-11-23T23:39:06.941Z,6.00
2022-11-23T23:41:14.197Z,6.00
2022-11-23T23:43:22.725Z,6.00
2022-11-23T23:45:27.828Z,6.00
2022-11-23T23:47:34.237Z,6.00
2022-11-23T23:49:41.932Z,6.00
2022-11-23T23:51:51.429Z,6.00
2022-11-23T23:53:56.881Z,6.00
2022-11-23T23:56:03.729Z,6.10
2022-11-23T23:58:12.092Z,6.00
